sensor_id;sensor_type;location;lat;lon;timestamp;temperature;humidity
15615;DHT22;7907;51.368;6.730;2023-02-12T00:02:29;9.50;99.90
15615;DHT22;7907;51.368;6.730;2023-02-12T00:04:57;9.50;99.90
15615;DHT22;7907;51.368;6.730;2023-02-12T00:07:24;9.60;99.90
15615;DHT22;7907;51.368;6.730;2023-02-12T00:09:51;9.50;99.90
15615;DHT22;7907;51.368;6.730;2023-02-12T00:12:19;9.50;99.90
15615;DHT22;7907;51.368;6.730;2023-02-12T00:14:46;9.50;99.90
15615;DHT22;7907;51.368;6.730;2023-02-12T00:17:14;9.60;99.90
15615;DHT22;7907;51.368;6.730;2023-02-12T00:19:44;9.50;99.90
15615;DHT22;7907;51.368;6.730;2023-02-12T00:22:13;9.60;99.90
15615;DHT22;7907;51.368;6.730;2023-02-12T00:24:41;9.60;99.90
15615;DHT22;7907;51.368;6.730;2023-02-12T00:27:09;9.60;99.90
15615;DHT22;7907;51.368;6.730;2023-02-12T00:29:37;9.60;99.90
15615;DHT22;7907;51.368;6.730;2023-02-12T00:32:04;9.60;99.90
15615;DHT22;7907;51.368;6.730;2023-02-12T00:34:34;9.60;99.90
15615;DHT22;7907;51.368;6.730;2023-02-12T00:37:03;9.60;99.90
15615;DHT22;7907;51.368;6.730;2023-02-12T00:39:31;9.70;99.90
15615;DHT22;7907;51.368;6.730;2023-02-12T00:42:01;9.60;99.90
15615;DHT22;7907;51.368;6.730;2023-02-12T00:44:28;9.60;99.90
15615;DHT22;7907;51.368;6.730;2023-02-12T00:46:55;9.60;99.90
15615;DHT22;7907;51.368;6.730;2023-02-12T00:49:23;9.60;99.90
15615;DHT22;7907;51.368;6.730;2023-02-12T00:52:02;9.60;99.90
15615;DHT22;7907;51.368;6.730;2023-02-12T00:54:31;9.60;99.90
15615;DHT22;7907;51.368;6.730;2023-02-12T00:56:58;9.60;99.90
15615;DHT22;7907;51.368;6.730;2023-02-12T00:59:26;9.60;99.90
15615;DHT22;7907;51.368;6.730;2023-02-12T01:01:55;9.60;99.90
15615;DHT22;7907;51.368;6.730;2023-02-12T01:04:23;9.60;99.90
15615;DHT22;7907;51.368;6.730;2023-02-12T01:06:51;9.60;99.90
15615;DHT22;7907;51.368;6.730;2023-02-12T01:09:21;9.60;99.90
15615;DHT22;7907;51.368;6.730;2023-02-12T01:11:50;9.60;99.90
15615;DHT22;7907;51.368;6.730;2023-02-12T01:14:21;9.50;99.90
15615;DHT22;7907;51.368;6.730;2023-02-12T01:16:48;9.60;99.90
15615;DHT22;7907;51.368;6.730;2023-02-12T01:19:15;9.50;99.90
15615;DHT22;7907;51.368;6.730;2023-02-12T01:21:43;9.60;99.90
15615;DHT22;7907;51.368;6.730;2023-02-12T01:24:10;9.50;99.90
15615;DHT22;7907;51.368;6.730;2023-02-12T01:26:38;9.60;99.90
15615;DHT22;7907;51.368;6.730;2023-02-12T01:29:07;9.50;99.90
15615;DHT22;7907;51.368;6.730;2023-02-12T01:31:36;9.50;99.90
15615;DHT22;7907;51.368;6.730;2023-02-12T01:34:11;9.60;99.90
15615;DHT22;7907;51.368;6.730;2023-02-12T01:36:42;9.60;99.90
15615;DHT22;7907;51.368;6.730;2023-02-12T01:39:10;9.60;99.90
15615;DHT22;7907;51.368;6.730;2023-02-12T01:41:41;9.60;99.90
15615;DHT22;7907;51.368;6.730;2023-02-12T01:44:16;9.50;99.90
15615;DHT22;7907;51.368;6.730;2023-02-12T01:46:45;9.50;99.90
15615;DHT22;7907;51.368;6.730;2023-02-12T01:49:16;9.50;99.90
15615;DHT22;7907;51.368;6.730;2023-02-12T01:51:47;9.50;99.90
15615;DHT22;7907;51.368;6.730;2023-02-12T01:54:19;9.50;99.90
15615;DHT22;7907;51.368;6.730;2023-02-12T01:56:48;9.50;99.90
15615;DHT22;7907;51.368;6.730;2023-02-12T01:59:27;9.50;99.90
15615;DHT22;7907;51.368;6.730;2023-02-12T02:01:57;9.50;99.90
15615;DHT22;7907;51.368;6.730;2023-02-12T02:04:42;9.50;99.90
15615;DHT22;7907;51.368;6.730;2023-02-12T02:07:13;9.50;99.90
15615;DHT22;7907;51.368;6.730;2023-02-12T02:09:41;9.50;99.90
15615;DHT22;7907;51.368;6.730;2023-02-12T02:12:10;9.50;99.90
15615;DHT22;7907;51.368;6.730;2023-02-12T02:15:00;9.40;99.90
15615;DHT22;7907;51.368;6.730;2023-02-12T02:17:40;9.50;99.90
15615;DHT22;7907;51.368;6.730;2023-02-12T02:20:36;9.40;99.90
15615;DHT22;7907;51.368;6.730;2023-02-12T02:29:35;9.50;99.90
15615;DHT22;7907;51.368;6.730;2023-02-12T02:32:12;9.40;99.90
15615;DHT22;7907;51.368;6.730;2023-02-12T02:34:51;9.40;99.90
15615;DHT22;7907;51.368;6.730;2023-02-12T02:37:28;9.40;99.90
15615;DHT22;7907;51.368;6.730;2023-02-12T02:40:00;9.50;99.90
15615;DHT22;7907;51.368;6.730;2023-02-12T02:42:34;9.40;99.90
15615;DHT22;7907;51.368;6.730;2023-02-12T02:45:10;9.40;99.90
15615;DHT22;7907;51.368;6.730;2023-02-12T02:47:45;9.40;99.90
15615;DHT22;7907;51.368;6.730;2023-02-12T02:50:16;9.40;99.90
15615;DHT22;7907;51.368;6.730;2023-02-12T02:52:51;9.30;99.90
15615;DHT22;7907;51.368;6.730;2023-02-12T02:55:22;9.30;99.90
15615;DHT22;7907;51.368;6.730;2023-02-12T02:57:53;9.30;99.90
15615;DHT22;7907;51.368;6.730;2023-02-12T03:00:26;9.30;99.90
15615;DHT22;7907;51.368;6.730;2023-02-12T03:03:04;9.30;99.90
15615;DHT22;7907;51.368;6.730;2023-02-12T03:05:41;9.20;99.90
15615;DHT22;7907;51.368;6.730;2023-02-12T03:08:13;9.20;99.90
15615;DHT22;7907;51.368;6.730;2023-02-12T03:10:43;9.30;99.90
15615;DHT22;7907;51.368;6.730;2023-02-12T03:13:15;9.20;99.90
15615;DHT22;7907;51.368;6.730;2023-02-12T03:15:47;9.30;99.90
15615;DHT22;7907;51.368;6.730;2023-02-12T03:18:21;9.20;99.90
15615;DHT22;7907;51.368;6.730;2023-02-12T03:20:54;9.20;99.90
15615;DHT22;7907;51.368;6.730;2023-02-12T03:23:25;9.20;99.90
15615;DHT22;7907;51.368;6.730;2023-02-12T03:25:58;9.10;99.90
15615;DHT22;7907;51.368;6.730;2023-02-12T03:28:30;9.20;99.90
15615;DHT22;7907;51.368;6.730;2023-02-12T03:31:02;9.20;99.90
15615;DHT22;7907;51.368;6.730;2023-02-12T03:33:40;9.20;99.90
15615;DHT22;7907;51.368;6.730;2023-02-12T03:36:19;9.10;99.90
15615;DHT22;7907;51.368;6.730;2023-02-12T03:38:52;9.20;99.90
15615;DHT22;7907;51.368;6.730;2023-02-12T03:41:24;9.10;99.90
15615;DHT22;7907;51.368;6.730;2023-02-12T03:43:58;9.10;99.90
15615;DHT22;7907;51.368;6.730;2023-02-12T03:46:38;9.10;99.90
15615;DHT22;7907;51.368;6.730;2023-02-12T03:49:13;9.10;99.90
15615;DHT22;7907;51.368;6.730;2023-02-12T03:51:45;9.10;99.90
15615;DHT22;7907;51.368;6.730;2023-02-12T03:54:18;9.10;99.90
15615;DHT22;7907;51.368;6.730;2023-02-12T03:56:49;9.10;99.90
15615;DHT22;7907;51.368;6.730;2023-02-12T03:59:23;9.10;99.90
15615;DHT22;7907;51.368;6.730;2023-02-12T04:01:53;9.10;99.90
15615;DHT22;7907;51.368;6.730;2023-02-12T04:04:25;9.10;99.90
15615;DHT22;7907;51.368;6.730;2023-02-12T04:06:58;9.10;99.90
15615;DHT22;7907;51.368;6.730;2023-02-12T04:09:27;9.10;99.90
15615;DHT22;7907;51.368;6.730;2023-02-12T04:12:06;9.10;99.90
15615;DHT22;7907;51.368;6.730;2023-02-12T04:14:45;9.10;99.90
15615;DHT22;7907;51.368;6.730;2023-02-12T04:17:24;9.10;99.90
15615;DHT22;7907;51.368;6.730;2023-02-12T04:20:07;9.10;99.90
15615;DHT22;7907;51.368;6.730;2023-02-12T04:22:44;9.10;99.90
15615;DHT22;7907;51.368;6.730;2023-02-12T04:25:21;9.10;99.90
15615;DHT22;7907;51.368;6.730;2023-02-12T04:27:57;9.10;99.90
15615;DHT22;7907;51.368;6.730;2023-02-12T04:30:31;9.10;99.90
15615;DHT22;7907;51.368;6.730;2023-02-12T04:33:02;9.10;99.90
15615;DHT22;7907;51.368;6.730;2023-02-12T04:35:35;9.10;99.90
15615;DHT22;7907;51.368;6.730;2023-02-12T04:38:09;9.10;99.90
15615;DHT22;7907;51.368;6.730;2023-02-12T04:40:40;9.10;99.90
15615;DHT22;7907;51.368;6.730;2023-02-12T04:43:08;9.10;99.90
15615;DHT22;7907;51.368;6.730;2023-02-12T04:45:36;9.10;99.90
15615;DHT22;7907;51.368;6.730;2023-02-12T04:48:05;9.10;99.90
15615;DHT22;7907;51.368;6.730;2023-02-12T04:50:40;9.10;99.90
15615;DHT22;7907;51.368;6.730;2023-02-12T04:53:09;9.10;99.90
15615;DHT22;7907;51.368;6.730;2023-02-12T04:55:37;9.10;99.90
15615;DHT22;7907;51.368;6.730;2023-02-12T04:58:05;9.10;99.90
15615;DHT22;7907;51.368;6.730;2023-02-12T05:00:33;9.10;99.90
15615;DHT22;7907;51.368;6.730;2023-02-12T05:03:01;9.10;99.90
15615;DHT22;7907;51.368;6.730;2023-02-12T05:05:30;9.10;99.90
15615;DHT22;7907;51.368;6.730;2023-02-12T05:08:00;9.00;99.90
15615;DHT22;7907;51.368;6.730;2023-02-12T05:10:27;9.10;99.90
15615;DHT22;7907;51.368;6.730;2023-02-12T05:12:55;9.10;99.90
15615;DHT22;7907;51.368;6.730;2023-02-12T05:15:22;9.10;99.90
15615;DHT22;7907;51.368;6.730;2023-02-12T05:17:55;9.10;99.90
15615;DHT22;7907;51.368;6.730;2023-02-12T05:20:23;9.10;99.90
15615;DHT22;7907;51.368;6.730;2023-02-12T05:22:52;9.20;99.90
15615;DHT22;7907;51.368;6.730;2023-02-12T05:25:22;9.10;99.90
15615;DHT22;7907;51.368;6.730;2023-02-12T05:27:50;9.10;99.90
15615;DHT22;7907;51.368;6.730;2023-02-12T05:30:18;9.10;99.90
15615;DHT22;7907;51.368;6.730;2023-02-12T05:33:03;9.10;99.90
15615;DHT22;7907;51.368;6.730;2023-02-12T05:35:37;9.00;99.90
15615;DHT22;7907;51.368;6.730;2023-02-12T05:39:02;9.00;99.90
15615;DHT22;7907;51.368;6.730;2023-02-12T05:41:55;9.00;99.90
15615;DHT22;7907;51.368;6.730;2023-02-12T05:44:37;9.10;99.90
15615;DHT22;7907;51.368;6.730;2023-02-12T05:47:08;9.00;99.90
15615;DHT22;7907;51.368;6.730;2023-02-12T05:49:45;9.10;99.90
15615;DHT22;7907;51.368;6.730;2023-02-12T05:52:17;9.00;99.90
15615;DHT22;7907;51.368;6.730;2023-02-12T05:54:56;9.10;99.90
15615;DHT22;7907;51.368;6.730;2023-02-12T05:57:39;9.00;99.90
15615;DHT22;7907;51.368;6.730;2023-02-12T06:00:20;9.10;99.90
15615;DHT22;7907;51.368;6.730;2023-02-12T06:02:55;9.00;99.90
15615;DHT22;7907;51.368;6.730;2023-02-12T06:05:57;9.10;99.90
15615;DHT22;7907;51.368;6.730;2023-02-12T06:08:40;9.00;99.90
15615;DHT22;7907;51.368;6.730;2023-02-12T06:11:12;9.10;99.90
15615;DHT22;7907;51.368;6.730;2023-02-12T06:13:44;9.10;99.90
15615;DHT22;7907;51.368;6.730;2023-02-12T06:16:26;9.00;99.90
15615;DHT22;7907;51.368;6.730;2023-02-12T06:20:48;9.10;99.90
15615;DHT22;7907;51.368;6.730;2023-02-12T06:25:33;9.10;99.90
15615;DHT22;7907;51.368;6.730;2023-02-12T06:28:01;9.00;99.90
15615;DHT22;7907;51.368;6.730;2023-02-12T06:30:52;9.00;99.90
15615;DHT22;7907;51.368;6.730;2023-02-12T06:34:14;9.00;99.90
15615;DHT22;7907;51.368;6.730;2023-02-12T06:36:45;9.00;99.90
15615;DHT22;7907;51.368;6.730;2023-02-12T06:39:17;9.00;99.90
15615;DHT22;7907;51.368;6.730;2023-02-12T06:42:03;9.00;99.90
15615;DHT22;7907;51.368;6.730;2023-02-12T06:44:49;9.00;99.90
15615;DHT22;7907;51.368;6.730;2023-02-12T06:47:32;9.00;99.90
15615;DHT22;7907;51.368;6.730;2023-02-12T06:50:04;9.00;99.90
15615;DHT22;7907;51.368;6.730;2023-02-12T06:52:36;9.00;99.90
15615;DHT22;7907;51.368;6.730;2023-02-12T06:55:05;9.00;99.90
15615;DHT22;7907;51.368;6.730;2023-02-12T06:57:33;9.00;99.90
15615;DHT22;7907;51.368;6.730;2023-02-12T07:00:14;9.00;99.90
15615;DHT22;7907;51.368;6.730;2023-02-12T07:02:55;9.00;99.90
15615;DHT22;7907;51.368;6.730;2023-02-12T07:05:23;9.00;99.90
15615;DHT22;7907;51.368;6.730;2023-02-12T07:07:53;9.00;99.90
15615;DHT22;7907;51.368;6.730;2023-02-12T07:10:34;9.00;99.90
15615;DHT22;7907;51.368;6.730;2023-02-12T07:13:01;9.00;99.90
15615;DHT22;7907;51.368;6.730;2023-02-12T07:15:40;9.00;99.90
15615;DHT22;7907;51.368;6.730;2023-02-12T07:24:00;9.00;99.90
15615;DHT22;7907;51.368;6.730;2023-02-12T07:26:59;9.00;99.90
15615;DHT22;7907;51.368;6.730;2023-02-12T07:29:55;9.10;99.90
15615;DHT22;7907;51.368;6.730;2023-02-12T07:32:31;9.10;99.90
15615;DHT22;7907;51.368;6.730;2023-02-12T07:35:03;9.10;99.90
15615;DHT22;7907;51.368;6.730;2023-02-12T07:37:36;9.10;99.90
15615;DHT22;7907;51.368;6.730;2023-02-12T07:40:26;9.10;99.90
15615;DHT22;7907;51.368;6.730;2023-02-12T07:42:57;9.10;99.90
15615;DHT22;7907;51.368;6.730;2023-02-12T07:45:29;9.20;99.90
15615;DHT22;7907;51.368;6.730;2023-02-12T07:48:03;9.20;99.90
15615;DHT22;7907;51.368;6.730;2023-02-12T07:50:48;9.20;99.90
15615;DHT22;7907;51.368;6.730;2023-02-12T07:54:09;9.20;99.90
15615;DHT22;7907;51.368;6.730;2023-02-12T07:57:40;9.20;99.90
15615;DHT22;7907;51.368;6.730;2023-02-12T08:02:55;9.20;99.90
15615;DHT22;7907;51.368;6.730;2023-02-12T08:04:21;9.30;99.90
15615;DHT22;7907;51.368;6.730;2023-02-12T08:24:32;9.60;99.90
15615;DHT22;7907;51.368;6.730;2023-02-12T08:51:22;10.00;99.90
15615;DHT22;7907;51.368;6.730;2023-02-12T08:54:10;10.00;99.90
15615;DHT22;7907;51.368;6.730;2023-02-12T08:57:01;10.10;99.90
15615;DHT22;7907;51.368;6.730;2023-02-12T08:59:31;10.10;99.90
15615;DHT22;7907;51.368;6.730;2023-02-12T09:01:58;10.20;99.90
15615;DHT22;7907;51.368;6.730;2023-02-12T09:04:28;10.20;99.90
15615;DHT22;7907;51.368;6.730;2023-02-12T09:06:57;10.30;99.90
15615;DHT22;7907;51.368;6.730;2023-02-12T09:09:26;10.30;99.90
15615;DHT22;7907;51.368;6.730;2023-02-12T09:11:57;10.40;99.90
15615;DHT22;7907;51.368;6.730;2023-02-12T09:14:31;10.50;99.90
15615;DHT22;7907;51.368;6.730;2023-02-12T09:17:22;10.60;99.90
15615;DHT22;7907;51.368;6.730;2023-02-12T09:22:50;10.70;99.90
15615;DHT22;7907;51.368;6.730;2023-02-12T09:25:37;10.80;99.90
15615;DHT22;7907;51.368;6.730;2023-02-12T09:28:06;10.80;99.90
15615;DHT22;7907;51.368;6.730;2023-02-12T09:30:47;10.90;99.90
15615;DHT22;7907;51.368;6.730;2023-02-12T09:33:34;11.00;99.90
15615;DHT22;7907;51.368;6.730;2023-02-12T09:36:17;11.00;99.90
15615;DHT22;7907;51.368;6.730;2023-02-12T09:39:16;11.10;99.90
15615;DHT22;7907;51.368;6.730;2023-02-12T09:42:36;11.20;99.90
15615;DHT22;7907;51.368;6.730;2023-02-12T09:45:25;11.20;99.90
15615;DHT22;7907;51.368;6.730;2023-02-12T09:48:04;11.30;99.90
15615;DHT22;7907;51.368;6.730;2023-02-12T09:51:16;11.40;99.90
15615;DHT22;7907;51.368;6.730;2023-02-12T09:54:22;11.50;99.90
15615;DHT22;7907;51.368;6.730;2023-02-12T09:57:00;11.60;99.90
15615;DHT22;7907;51.368;6.730;2023-02-12T09:59:53;11.60;99.90
15615;DHT22;7907;51.368;6.730;2023-02-12T10:02:26;11.70;99.90
15615;DHT22;7907;51.368;6.730;2023-02-12T10:05:23;11.80;99.90
15615;DHT22;7907;51.368;6.730;2023-02-12T10:08:26;11.90;99.90
15615;DHT22;7907;51.368;6.730;2023-02-12T10:14:34;12.00;99.90
15615;DHT22;7907;51.368;6.730;2023-02-12T10:17:14;12.10;99.90
15615;DHT22;7907;51.368;6.730;2023-02-12T10:20:14;12.30;99.90
15615;DHT22;7907;51.368;6.730;2023-02-12T10:23:10;12.30;99.90
15615;DHT22;7907;51.368;6.730;2023-02-12T10:25:49;12.40;99.90
15615;DHT22;7907;51.368;6.730;2023-02-12T10:28:49;12.40;99.90
15615;DHT22;7907;51.368;6.730;2023-02-12T10:31:33;12.40;99.90
15615;DHT22;7907;51.368;6.730;2023-02-12T10:34:17;12.50;99.90
15615;DHT22;7907;51.368;6.730;2023-02-12T10:37:08;12.60;99.90
15615;DHT22;7907;51.368;6.730;2023-02-12T10:40:14;12.60;99.90
15615;DHT22;7907;51.368;6.730;2023-02-12T10:42:57;12.70;99.90
15615;DHT22;7907;51.368;6.730;2023-02-12T10:48:35;12.80;99.90
15615;DHT22;7907;51.368;6.730;2023-02-12T10:52:17;12.90;99.90
15615;DHT22;7907;51.368;6.730;2023-02-12T10:54:55;12.90;99.90
15615;DHT22;7907;51.368;6.730;2023-02-12T10:58:02;13.00;99.90
15615;DHT22;7907;51.368;6.730;2023-02-12T11:01:19;13.00;99.90
15615;DHT22;7907;51.368;6.730;2023-02-12T11:14:24;13.20;99.90
15615;DHT22;7907;51.368;6.730;2023-02-12T11:17:43;13.30;99.90
15615;DHT22;7907;51.368;6.730;2023-02-12T11:20:37;13.40;99.90
15615;DHT22;7907;51.368;6.730;2023-02-12T11:23:42;13.40;99.90
15615;DHT22;7907;51.368;6.730;2023-02-12T11:26:31;13.40;99.90
15615;DHT22;7907;51.368;6.730;2023-02-12T11:29:30;13.50;99.90
15615;DHT22;7907;51.368;6.730;2023-02-12T11:32:50;13.50;99.90
15615;DHT22;7907;51.368;6.730;2023-02-12T11:42:14;13.30;99.90
15615;DHT22;7907;51.368;6.730;2023-02-12T11:45:29;13.20;99.90
15615;DHT22;7907;51.368;6.730;2023-02-12T11:52:07;13.30;99.90
15615;DHT22;7907;51.368;6.730;2023-02-12T12:02:19;13.40;99.90
15615;DHT22;7907;51.368;6.730;2023-02-12T12:05:20;13.20;99.90
15615;DHT22;7907;51.368;6.730;2023-02-12T12:07:56;13.20;99.90
15615;DHT22;7907;51.368;6.730;2023-02-12T12:10:33;13.10;99.90
15615;DHT22;7907;51.368;6.730;2023-02-12T12:13:09;13.10;99.90
15615;DHT22;7907;51.368;6.730;2023-02-12T12:16:03;13.00;99.90
15615;DHT22;7907;51.368;6.730;2023-02-12T12:19:00;12.90;99.90
15615;DHT22;7907;51.368;6.730;2023-02-12T12:21:49;12.90;99.90
15615;DHT22;7907;51.368;6.730;2023-02-12T12:24:30;12.80;99.90
15615;DHT22;7907;51.368;6.730;2023-02-12T12:27:11;12.70;99.90
15615;DHT22;7907;51.368;6.730;2023-02-12T12:30:10;12.80;99.90
15615;DHT22;7907;51.368;6.730;2023-02-12T12:32:46;12.80;99.90
15615;DHT22;7907;51.368;6.730;2023-02-12T12:35:43;12.90;99.90
15615;DHT22;7907;51.368;6.730;2023-02-12T12:38:44;13.00;99.90
15615;DHT22;7907;51.368;6.730;2023-02-12T12:41:29;13.00;99.90
15615;DHT22;7907;51.368;6.730;2023-02-12T12:47:43;13.10;99.90
15615;DHT22;7907;51.368;6.730;2023-02-12T12:51:11;13.20;99.90
15615;DHT22;7907;51.368;6.730;2023-02-12T12:57:00;13.30;99.90
15615;DHT22;7907;51.368;6.730;2023-02-12T13:06:51;13.20;99.90
15615;DHT22;7907;51.368;6.730;2023-02-12T13:09:53;13.20;99.90
15615;DHT22;7907;51.368;6.730;2023-02-12T13:12:52;13.30;99.90
15615;DHT22;7907;51.368;6.730;2023-02-12T13:15:42;13.20;99.90
15615;DHT22;7907;51.368;6.730;2023-02-12T13:22:10;13.20;99.90
15615;DHT22;7907;51.368;6.730;2023-02-12T13:25:18;13.30;99.90
15615;DHT22;7907;51.368;6.730;2023-02-12T13:28:13;13.30;99.90
15615;DHT22;7907;51.368;6.730;2023-02-12T13:34:06;13.40;99.90
15615;DHT22;7907;51.368;6.730;2023-02-12T13:37:03;13.40;99.90
15615;DHT22;7907;51.368;6.730;2023-02-12T13:39:53;13.40;99.90
15615;DHT22;7907;51.368;6.730;2023-02-12T13:42:49;13.50;99.90
15615;DHT22;7907;51.368;6.730;2023-02-12T13:45:49;13.50;99.90
15615;DHT22;7907;51.368;6.730;2023-02-12T13:48:43;13.50;99.90
15615;DHT22;7907;51.368;6.730;2023-02-12T13:51:35;13.50;99.90
15615;DHT22;7907;51.368;6.730;2023-02-12T13:57:30;13.60;99.90
15615;DHT22;7907;51.368;6.730;2023-02-12T14:00:04;13.50;99.90
15615;DHT22;7907;51.368;6.730;2023-02-12T14:02:53;13.50;99.90
15615;DHT22;7907;51.368;6.730;2023-02-12T14:05:35;13.50;99.90
15615;DHT22;7907;51.368;6.730;2023-02-12T14:08:30;13.50;99.90
15615;DHT22;7907;51.368;6.730;2023-02-12T14:11:19;13.50;99.90
15615;DHT22;7907;51.368;6.730;2023-02-12T14:13:58;13.50;99.90
15615;DHT22;7907;51.368;6.730;2023-02-12T14:16:45;13.50;99.90
15615;DHT22;7907;51.368;6.730;2023-02-12T14:19:51;13.40;99.90
15615;DHT22;7907;51.368;6.730;2023-02-12T14:22:56;13.40;99.90
15615;DHT22;7907;51.368;6.730;2023-02-12T14:25:42;13.40;99.90
15615;DHT22;7907;51.368;6.730;2023-02-12T14:28:29;13.40;99.90
15615;DHT22;7907;51.368;6.730;2023-02-12T14:31:33;13.30;99.90
15615;DHT22;7907;51.368;6.730;2023-02-12T14:34:39;13.40;99.90
15615;DHT22;7907;51.368;6.730;2023-02-12T14:37:15;13.30;99.90
15615;DHT22;7907;51.368;6.730;2023-02-12T14:39:48;13.30;99.90
15615;DHT22;7907;51.368;6.730;2023-02-12T14:42:55;13.30;99.90
15615;DHT22;7907;51.368;6.730;2023-02-12T14:45:34;13.30;99.90
15615;DHT22;7907;51.368;6.730;2023-02-12T14:48:44;13.30;99.90
15615;DHT22;7907;51.368;6.730;2023-02-12T14:51:21;13.20;99.90
15615;DHT22;7907;51.368;6.730;2023-02-12T14:53:55;13.20;99.90
15615;DHT22;7907;51.368;6.730;2023-02-12T14:56:33;13.20;99.90
15615;DHT22;7907;51.368;6.730;2023-02-12T14:59:52;13.10;99.90
15615;DHT22;7907;51.368;6.730;2023-02-12T15:02:50;13.20;99.90
15615;DHT22;7907;51.368;6.730;2023-02-12T15:05:46;13.10;99.90
15615;DHT22;7907;51.368;6.730;2023-02-12T15:08:35;13.10;99.90
15615;DHT22;7907;51.368;6.730;2023-02-12T15:11:21;13.00;99.90
15615;DHT22;7907;51.368;6.730;2023-02-12T15:14:16;13.00;99.90
15615;DHT22;7907;51.368;6.730;2023-02-12T15:17:39;13.00;99.90
15615;DHT22;7907;51.368;6.730;2023-02-12T15:20:27;12.90;99.90
15615;DHT22;7907;51.368;6.730;2023-02-12T15:23:56;12.90;99.90
15615;DHT22;7907;51.368;6.730;2023-02-12T15:26:39;12.90;99.90
15615;DHT22;7907;51.368;6.730;2023-02-12T15:29:49;12.90;99.90
15615;DHT22;7907;51.368;6.730;2023-02-12T15:36:26;12.80;99.90
15615;DHT22;7907;51.368;6.730;2023-02-12T15:39:44;12.80;99.90
15615;DHT22;7907;51.368;6.730;2023-02-12T15:42:50;12.70;99.90
15615;DHT22;7907;51.368;6.730;2023-02-12T15:48:38;12.70;99.90
15615;DHT22;7907;51.368;6.730;2023-02-12T15:51:25;12.70;99.90
15615;DHT22;7907;51.368;6.730;2023-02-12T15:54:03;12.60;99.90
15615;DHT22;7907;51.368;6.730;2023-02-12T15:56:52;12.60;99.90
15615;DHT22;7907;51.368;6.730;2023-02-12T15:59:39;12.60;99.90
15615;DHT22;7907;51.368;6.730;2023-02-12T16:02:18;12.50;99.90
15615;DHT22;7907;51.368;6.730;2023-02-12T16:04:51;12.50;99.90
15615;DHT22;7907;51.368;6.730;2023-02-12T16:07:21;12.50;99.90
15615;DHT22;7907;51.368;6.730;2023-02-12T16:09:51;12.50;99.90
15615;DHT22;7907;51.368;6.730;2023-02-12T16:12:37;12.40;99.90
15615;DHT22;7907;51.368;6.730;2023-02-12T16:15:23;12.40;99.90
15615;DHT22;7907;51.368;6.730;2023-02-12T16:17:58;12.30;99.90
15615;DHT22;7907;51.368;6.730;2023-02-12T16:20:29;12.40;99.90
15615;DHT22;7907;51.368;6.730;2023-02-12T16:23:15;12.30;99.90
15615;DHT22;7907;51.368;6.730;2023-02-12T16:25:56;12.30;99.90
15615;DHT22;7907;51.368;6.730;2023-02-12T16:28:31;12.30;99.90
15615;DHT22;7907;51.368;6.730;2023-02-12T16:31:12;12.30;99.90
15615;DHT22;7907;51.368;6.730;2023-02-12T16:33:46;12.20;99.90
15615;DHT22;7907;51.368;6.730;2023-02-12T16:36:28;12.20;99.90
15615;DHT22;7907;51.368;6.730;2023-02-12T16:39:04;12.20;99.90
15615;DHT22;7907;51.368;6.730;2023-02-12T16:41:50;12.20;99.90
15615;DHT22;7907;51.368;6.730;2023-02-12T16:44:26;12.10;99.90
15615;DHT22;7907;51.368;6.730;2023-02-12T16:47:05;12.20;99.90
15615;DHT22;7907;51.368;6.730;2023-02-12T16:49:36;12.10;99.90
15615;DHT22;7907;51.368;6.730;2023-02-12T16:52:25;12.10;99.90
15615;DHT22;7907;51.368;6.730;2023-02-12T16:55:02;12.00;99.90
15615;DHT22;7907;51.368;6.730;2023-02-12T16:57:36;12.00;99.90
15615;DHT22;7907;51.368;6.730;2023-02-12T17:00:06;12.00;99.90
15615;DHT22;7907;51.368;6.730;2023-02-12T17:02:36;12.00;99.90
15615;DHT22;7907;51.368;6.730;2023-02-12T17:05:07;12.00;99.90
15615;DHT22;7907;51.368;6.730;2023-02-12T17:07:35;12.00;99.90
15615;DHT22;7907;51.368;6.730;2023-02-12T17:10:10;11.90;99.90
15615;DHT22;7907;51.368;6.730;2023-02-12T17:12:44;11.90;99.90
15615;DHT22;7907;51.368;6.730;2023-02-12T17:15:20;11.90;99.90
15615;DHT22;7907;51.368;6.730;2023-02-12T17:17:51;11.90;99.90
15615;DHT22;7907;51.368;6.730;2023-02-12T17:20:23;11.90;99.90
15615;DHT22;7907;51.368;6.730;2023-02-12T17:22:53;11.80;99.90
15615;DHT22;7907;51.368;6.730;2023-02-12T17:25:22;11.80;99.90
15615;DHT22;7907;51.368;6.730;2023-02-12T17:27:53;11.80;99.90
15615;DHT22;7907;51.368;6.730;2023-02-12T17:30:22;11.80;99.90
15615;DHT22;7907;51.368;6.730;2023-02-12T17:32:51;11.80;99.90
15615;DHT22;7907;51.368;6.730;2023-02-12T17:35:18;11.80;99.90
15615;DHT22;7907;51.368;6.730;2023-02-12T17:37:46;11.80;99.90
15615;DHT22;7907;51.368;6.730;2023-02-12T17:40:15;11.70;99.90
15615;DHT22;7907;51.368;6.730;2023-02-12T17:42:44;11.70;99.90
15615;DHT22;7907;51.368;6.730;2023-02-12T17:45:15;11.70;99.90
15615;DHT22;7907;51.368;6.730;2023-02-12T17:47:49;11.70;99.90
15615;DHT22;7907;51.368;6.730;2023-02-12T17:50:18;11.70;99.90
15615;DHT22;7907;51.368;6.730;2023-02-12T17:52:52;11.70;99.90
15615;DHT22;7907;51.368;6.730;2023-02-12T17:55:19;11.60;99.90
15615;DHT22;7907;51.368;6.730;2023-02-12T17:57:54;11.60;99.90
15615;DHT22;7907;51.368;6.730;2023-02-12T18:00:31;11.60;99.90
15615;DHT22;7907;51.368;6.730;2023-02-12T18:03:00;11.50;99.90
15615;DHT22;7907;51.368;6.730;2023-02-12T18:05:31;11.60;99.90
15615;DHT22;7907;51.368;6.730;2023-02-12T18:08:02;11.60;99.90
15615;DHT22;7907;51.368;6.730;2023-02-12T18:10:37;11.60;99.90
15615;DHT22;7907;51.368;6.730;2023-02-12T18:13:06;11.60;99.90
15615;DHT22;7907;51.368;6.730;2023-02-12T18:15:43;11.50;99.90
15615;DHT22;7907;51.368;6.730;2023-02-12T18:18:34;11.50;99.90
15615;DHT22;7907;51.368;6.730;2023-02-12T18:21:24;11.50;99.90
15615;DHT22;7907;51.368;6.730;2023-02-12T18:24:17;11.50;99.90
15615;DHT22;7907;51.368;6.730;2023-02-12T18:26:52;11.50;99.90
15615;DHT22;7907;51.368;6.730;2023-02-12T18:29:24;11.50;99.90
15615;DHT22;7907;51.368;6.730;2023-02-12T18:31:53;11.40;99.90
15615;DHT22;7907;51.368;6.730;2023-02-12T18:34:25;11.40;99.90
15615;DHT22;7907;51.368;6.730;2023-02-12T18:36:57;11.40;99.90
15615;DHT22;7907;51.368;6.730;2023-02-12T18:39:25;11.40;99.90
15615;DHT22;7907;51.368;6.730;2023-02-12T18:41:52;11.40;99.90
15615;DHT22;7907;51.368;6.730;2023-02-12T18:44:23;11.40;99.90
15615;DHT22;7907;51.368;6.730;2023-02-12T18:46:58;11.40;99.90
15615;DHT22;7907;51.368;6.730;2023-02-12T18:49:36;11.40;99.90
15615;DHT22;7907;51.368;6.730;2023-02-12T18:52:10;11.30;99.90
15615;DHT22;7907;51.368;6.730;2023-02-12T18:54:43;11.30;99.90
15615;DHT22;7907;51.368;6.730;2023-02-12T18:57:24;11.30;99.90
15615;DHT22;7907;51.368;6.730;2023-02-12T19:00:06;11.30;99.90
15615;DHT22;7907;51.368;6.730;2023-02-12T19:02:41;11.20;99.90
15615;DHT22;7907;51.368;6.730;2023-02-12T19:05:20;11.30;99.90
15615;DHT22;7907;51.368;6.730;2023-02-12T19:08:03;11.20;99.90
15615;DHT22;7907;51.368;6.730;2023-02-12T19:10:40;11.30;99.90
15615;DHT22;7907;51.368;6.730;2023-02-12T19:13:13;11.20;99.90
15615;DHT22;7907;51.368;6.730;2023-02-12T19:15:42;11.10;99.90
15615;DHT22;7907;51.368;6.730;2023-02-12T19:18:24;11.10;99.90
15615;DHT22;7907;51.368;6.730;2023-02-12T19:21:04;11.10;99.90
15615;DHT22;7907;51.368;6.730;2023-02-12T19:23:40;11.10;99.90